Portada
METAR-TAF:

METAR-TAF

Aeroports :

Benarés, Índia

latitud: 25-27N, longitud: 082-52E, altitud: 81 m

Observació

L'informe es va fer fa 45 minuts, a les 10:00 UTC
Vent 6 kt del Nord-Oest
Temperatura 30°C
Humitat 29%
Pressió 1013 hPa
Visibilitat: 5000 m
calitja

METAR: VEBN 281000Z 32006KT 5000 HZ NSC 30/10 Q1013 NOSIG

Hora: 16:15 (10:45 UTC)

Pronòstic

L'informe es va fer fa 2 hores i 45 minuts, a les 08:00 UTC
Pronòstic vàlid del 28 a les 09 UTC al 28 a les 18 UTC
Vent 8 kt del Oest/Nord-Oest
Visibilitat: 5000 m
calitja
Evolucionant progressivament
l' 28 a les 14 UTC al 28 a les 16 UTC
Vent 2 kt amb direcció variable
Visibilitat: 3000 m
boirina

TAF: VEBN 280800Z 2809/2818 30008KT 5000 HZ NSC BECMG 2814/2816 VRB02KT 3000 BR

Observacions i pronòstics meteorològics de més de 4000 aeroports (METAR i TAF).

Les estacions disponibles són els punts grocs i vermells al mapa.

Posi el ratolí al punt desitjat per veure el nom de l'estació.

Feu clic per veure les observacions i els pronòstics meteorològics.

Per canviar el mapa: feu clic els botons verds amb una creu de color negre per apropar; al botó verd amb un guió per allunyar la imatge; o en les fletxes verdes per a mapes adjacents.


METAR-TAF: